Louisburg, North Carolina
Current Conditions -  °F | °C
As of 2:55 AM on Monday 24 Nov 2014 (Local Time) from KLHZ Reporting Station
Overcast Overcast  
Wind Chill: 63°   Ceiling: 3000
Heat Index: 63°   Visibility: 10mi
Dew Point: 63°   Wind: 13mph
Humidity: 100%   Direction: 160°SSE
Pressure: 29.78"   Gusts: 21mph
Location:  36.1°N, 78.3°W
Report Text: KLHZ 240755Z AUTO 16011G18KT 10SM SCT008 BKN030 OVC039 17/17 A2978 RMK AO2
Loading
Personal Weather Stations






























Interactive Weather Map New forecast layout! Learn more

10-Day Weather Forecast

Advertisements
Track Severe Weather on mobile